Aplicació Alertes

Dades de l'estació automàtica Perafita

?
?
Resum diari 22:30 TU
Dades diàries de l'estació meteorològica
Temperatura mitjana 2.5 °C
Temperatura màxima 8.6 °C 14:06 TU
Temperatura mínima -2.1 °C 20:26 TU
Humitat relativa mitjana 47%
Precipitació acumulada 0.0 mm
Ratxa màxima del vent (6 m) 32.8 km/h - 301º 4:28 TU
Irradiació solar global 8.5 MJ/m2

El tram horari està expressat en Temps Universal (TU). Cal sumar una hora en horari d'hivern i dues en horari d'estiu per passar a l'hora oficial.

Perafita

Metadades estació meteorol´gica
Municipi Perafita
Comarca Osona
Altitud 774 m
Data alta 03.07.1995
Estat actual Operativa
Dades de període
Període
TU
TM
°C
TX
°C
TN
°C
HRM
%
PPT
mm
VVM (6 m)
km/h
DVM (6 m)
graus
VVX (6 m)
km/h
RS
W/m2
00:00 - 00:30 0.9 1.5 0.3 40 0.0 3.2 167 10.8 0
00:30 - 01:00 0.4 1.1 -0.3 42 0.0 4.7 143 9.7 0
01:00 - 01:30 0.5 0.9 -0.1 42 0.0 3.6 205 10.1 0
01:30 - 02:00 -0.3 0.7 -0.8 47 0.0 3.2 94 7.6 0
02:00 - 02:30 -0.3 0.2 -0.8 47 0.0 2.2 262 6.1 0
02:30 - 03:00 0.1 3.2 -1.1 46 0.0 5.4 292 22.3 0
03:00 - 03:30 3.0 3.4 2.4 32 0.0 10.8 244 28.1 0
03:30 - 04:00 2.3 2.7 1.9 35 0.0 11.9 257 26.6 0
04:00 - 04:30 2.0 2.4 1.7 34 0.0 10.4 294 32.8 0
04:30 - 05:00 2.5 2.6 2.3 32 0.0 13.7 286 25.2 0
05:00 - 05:30 2.4 2.8 1.7 34 0.0 14.8 280 27.4 0
05:30 - 06:00 1.9 2.2 1.5 37 0.0 13.0 286 25.6 0
06:00 - 06:30 1.8 2.2 1.5 38 0.0 9.7 296 24.1 0
06:30 - 07:00 0.9 1.6 0.0 41 0.0 4.0 49 9.0 0
07:00 - 07:30 -0.3 1.5 -0.9 46 0.0 4.3 164 13.3 2
07:30 - 08:00 -1.1 -0.6 -1.8 52 0.0 2.2 189 7.9 33
08:00 - 08:30 -0.4 0.8 -1.2 54 0.0 2.2 85 6.5 121
08:30 - 09:00 0.8 2.3 0.1 54 0.0 2.9 177 9.7 196
09:00 - 09:30 2.5 3.8 1.6 49 0.0 1.8 139 6.5 265
09:30 - 10:00 3.1 4.1 2.6 46 0.0 4.7 187 11.2 326
10:00 - 10:30 2.5 3.1 2.1 49 0.0 7.2 202 15.5 375
10:30 - 11:00 2.7 3.1 2.1 49 0.0 7.9 198 15.5 417
11:00 - 11:30 4.0 4.8 3.2 47 0.0 6.8 215 14.0 448
11:30 - 12:00 5.2 6.0 4.8 43 0.0 7.6 202 16.6 445
12:00 - 12:30 6.9 7.2 6.1 41 0.0 6.1 175 14.4 456
12:30 - 13:00 7.3 7.8 6.7 41 0.0 7.6 181 16.2 473
13:00 - 13:30 6.5 7.4 5.9 42 0.0 9.4 201 19.1 233
13:30 - 14:00 6.5 7.3 6.1 39 0.0 13.0 205 23.0 290
14:00 - 14:30 8.2 8.6 7.6 35 0.0 8.3 200 16.2 297
14:30 - 15:00 7.6 8.2 7.1 36 0.0 8.3 169 20.2 223
15:00 - 15:30 7.5 7.8 7.0 33 0.0 10.4 207 18.7 135
15:30 - 16:00 6.6 7.1 6.0 38 0.0 6.8 193 16.9 60
16:00 - 16:30 4.9 5.9 3.8 45 0.0 6.1 163 16.2 12
16:30 - 17:00 3.5 4.1 2.9 50 0.0 4.7 145 11.9 0
17:00 - 17:30 2.4 3.1 1.8 55 0.0 4.0 149 11.2 0
17:30 - 18:00 1.7 2.5 1.0 58 0.0 4.0 74 14.0 0
18:00 - 18:30 1.8 2.5 1.0 57 0.0 4.7 172 10.8 0
18:30 - 19:00 1.0 2.0 -0.3 60 0.0 2.5 332 6.1 0
19:00 - 19:30 0.0 0.5 -0.6 65 0.0 5.8 72 12.2 0
19:30 - 20:00 -0.6 0.2 -1.3 67 0.0 4.0 59 11.2 0
20:00 - 20:30 -1.0 0.0 -2.1 69 0.0 4.7 46 11.5 0
20:30 - 21:00 -0.8 0.0 -1.4 69 0.0 3.6 105 8.3 0
21:00 - 21:30 0.8 5.3 -1.7 62 0.0 7.6 349 25.6 0
21:30 - 22:00 4.9 5.5 2.4 45 0.0 8.6 299 20.5 0
22:00 - 22:30 0.8 2.5 -0.1 61 0.0 4.7 203 17.3 0
22:30 - 23:00 -0.5 0.2 -1.5 66 0.0 2.5 66 8.3 0
23:00 - 23:30 (s/d) (s/d) (s/d) (s/d) (s/d) (s/d) (s/d) (s/d) (s/d)

Les dades en taronja només han passat un control de qualitat automàtic. Resta pendent la seva validació definitiva.